Time;durP1;ratioP1;P1;durP2;ratioP2;P2;SDS_P1;SDS_P2;PMS_P1;PMS_P2;Temp;Humidity;BMP_temperature;BMP_pressure;BME280_temperature;BME280_humidity;BME280_pressure;Samples;Min_cycle;Max_cycle;Signal;HPM_P1;HPM_P2
2022/03/13 00:00:47;;;;;;;20.80;12.35;;;7.20;99.90;;;;;;5047049;28;20488;-79
2022/03/13 00:03:14;;;;;;;19.70;12.18;;;6.70;99.90;;;;;;5040996;28;20044;-79
2022/03/13 00:05:42;;;;;;;18.60;11.65;;;6.70;99.90;;;;;;5047517;28;20105;-79
2022/03/13 00:08:22;;;;;;;20.83;12.05;;;6.70;99.90;;;;;;5038400;28;20033;-79
2022/03/13 00:11:01;;;;;;;23.02;13.57;;;7.40;99.90;;;;;;5054091;28;20041;-79
2022/03/13 00:13:31;;;;;;;20.90;11.90;;;6.70;99.90;;;;;;5045727;28;20037;-79
2022/03/13 00:16:09;;;;;;;21.77;12.75;;;6.70;99.90;;;;;;5040617;28;20045;-79
2022/03/13 00:18:37;;;;;;;22.58;13.07;;;6.70;99.90;;;;;;5059414;28;20400;-79
2022/03/13 00:21:04;;;;;;;19.95;13.15;;;6.70;99.90;;;;;;5054006;28;20048;-79
2022/03/13 00:23:35;;;;;;;21.10;13.57;;;6.70;99.90;;;;;;5046185;28;20066;-79
2022/03/13 00:26:02;;;;;;;21.40;12.63;;;6.70;99.90;;;;;;5043356;28;20053;-79
2022/03/13 00:28:27;;;;;;;23.10;12.80;;;6.70;99.90;;;;;;5038462;28;20060;-79
2022/03/13 00:30:53;;;;;;;22.05;13.43;;;6.60;99.90;;;;;;5047260;28;20083;-79
2022/03/13 00:33:20;;;;;;;19.10;12.20;;;6.60;99.90;;;;;;5042271;28;20067;-79
2022/03/13 00:35:46;;;;;;;20.70;12.90;;;6.60;99.90;;;;;;5042085;28;20049;-79
2022/03/13 00:38:12;;;;;;;21.05;12.48;;;6.60;99.90;;;;;;5041269;28;20127;-79
2022/03/13 00:40:38;;;;;;;19.40;12.93;;;6.60;99.90;;;;;;5042127;28;20147;-79
2022/03/13 00:43:04;;;;;;;19.30;12.25;;;6.70;99.90;;;;;;5079429;28;20119;-79
2022/03/13 00:45:30;;;;;;;22.10;13.48;;;6.70;99.90;;;;;;5074769;28;20055;-78
2022/03/13 00:47:57;;;;;;;17.77;12.18;;;6.70;99.90;;;;;;5055407;28;20060;-79
2022/03/13 00:50:23;;;;;;;22.75;13.50;;;6.70;99.90;;;;;;5052603;28;20433;-79
2022/03/13 00:52:49;;;;;;;20.73;12.82;;;6.70;99.90;;;;;;5038214;28;20161;-78
2022/03/13 00:55:15;;;;;;;18.25;12.57;;;6.70;99.90;;;;;;5039999;28;20076;-79
2022/03/13 00:57:43;;;;;;;22.50;13.50;;;6.80;99.90;;;;;;5042525;28;20084;-79
2022/03/13 01:00:13;;;;;;;24.42;14.27;;;6.80;99.90;;;;;;5072004;28;20037;-79
2022/03/13 01:02:39;;;;;;;22.13;13.40;;;6.80;99.90;;;;;;5041126;28;20044;-79
2022/03/13 01:05:09;;;;;;;21.05;13.75;;;6.80;99.90;;;;;;5037575;28;20102;-79
2022/03/13 01:07:35;;;;;;;22.27;13.13;;;6.80;99.90;;;;;;5041660;28;20049;-79
2022/03/13 01:10:01;;;;;;;21.67;13.75;;;6.80;99.90;;;;;;5034891;28;20056;-79
2022/03/13 01:12:28;;;;;;;20.55;13.15;;;6.80;99.90;;;;;;5034307;28;20532;-79
2022/03/13 01:14:54;;;;;;;21.08;13.27;;;6.90;99.90;;;;;;5043852;28;20052;-79
2022/03/13 01:17:20;;;;;;;20.80;12.93;;;6.90;99.90;;;;;;5034321;28;20053;-79
2022/03/13 01:19:49;;;;;;;22.63;13.00;;;6.90;99.90;;;;;;5060835;28;20047;-79
2022/03/13 01:22:15;;;;;;;23.98;14.02;;;6.90;99.90;;;;;;5045396;28;20416;-79
2022/03/13 01:24:44;;;;;;;19.63;12.82;;;6.90;99.90;;;;;;5038417;28;20483;-79
2022/03/13 01:27:17;;;;;;;22.17;13.48;;;6.90;99.90;;;;;;5071075;28;20067;-79
2022/03/13 01:29:44;;;;;;;21.90;13.77;;;6.90;99.90;;;;;;5058283;28;20040;-79
2022/03/13 01:32:12;;;;;;;21.38;14.30;;;6.90;99.90;;;;;;5051914;28;20174;-79
2022/03/13 01:34:41;;;;;;;24.92;14.02;;;6.90;99.90;;;;;;5053081;28;20128;-79
2022/03/13 01:37:30;;;;;;;23.75;13.88;;;7.30;99.90;;;;;;5066524;28;20032;-79
2022/03/13 01:40:10;;;;;;;25.10;14.05;;;6.90;99.90;;;;;;5040010;28;20067;-79
2022/03/13 01:42:40;;;;;;;20.58;13.23;;;6.90;99.90;;;;;;5038316;28;20049;-79
2022/03/13 01:45:10;;;;;;;22.13;13.30;;;6.90;99.90;;;;;;5074583;28;20052;-79
2022/03/13 01:47:36;;;;;;;23.08;13.80;;;6.90;99.90;;;;;;5033556;28;20045;-79
2022/03/13 01:50:04;;;;;;;21.75;13.65;;;6.90;99.90;;;;;;5065398;28;20049;-79
2022/03/13 01:52:30;;;;;;;22.77;12.95;;;6.90;99.90;;;;;;5055463;28;20076;-79
2022/03/13 01:54:57;;;;;;;23.48;13.65;;;6.90;99.90;;;;;;5034350;28;20060;-78
2022/03/13 01:57:24;;;;;;;21.08;13.45;;;6.90;99.90;;;;;;5039745;28;20045;-79
2022/03/13 02:00:00;;;;;;;26.23;13.32;;;6.90;99.90;;;;;;5059463;28;20044;-79
2022/03/13 02:02:33;;;;;;;22.15;13.13;;;6.90;99.90;;;;;;5039994;28;20037;-79
2022/03/13 02:04:58;;;;;;;23.33;13.60;;;6.90;99.90;;;;;;5045680;28;20037;-79
2022/03/13 02:07:26;;;;;;;22.67;12.73;;;6.90;99.90;;;;;;5033007;28;20128;-79
2022/03/13 02:09:53;;;;;;;21.08;13.27;;;6.90;99.90;;;;;;5072244;28;20549;-79
2022/03/13 02:12:20;;;;;;;23.33;14.32;;;6.90;99.90;;;;;;5039534;28;20500;-78
2022/03/13 02:14:48;;;;;;;18.33;12.52;;;6.90;99.90;;;;;;5059867;28;20037;-78
2022/03/13 02:17:32;;;;;;;20.42;12.80;;;7.00;99.90;;;;;;5044006;28;20045;-78
2022/03/13 02:19:58;;;;;;;26.47;14.53;;;7.00;99.90;;;;;;5038277;28;20159;-78
2022/03/13 02:22:24;;;;;;;24.02;14.55;;;7.70;99.90;;;;;;5055473;28;20036;-79
2022/03/13 02:24:53;;;;;;;19.35;13.05;;;7.00;99.90;;;;;;5036997;28;20044;-79
2022/03/13 02:27:22;;;;;;;18.45;11.70;;;7.00;99.90;;;;;;5032925;28;20040;-79
2022/03/13 02:29:47;;;;;;;23.50;13.15;;;7.10;99.90;;;;;;5062001;28;20045;-78
2022/03/13 02:32:13;;;;;;;23.17;13.65;;;7.10;99.90;;;;;;5039999;28;20041;-78
2022/03/13 02:34:39;;;;;;;20.67;12.75;;;7.10;99.90;;;;;;5055398;28;20043;-78
2022/03/13 02:37:15;;;;;;;24.92;14.20;;;7.40;99.90;;;;;;5052418;28;20838;-79
2022/03/13 02:39:40;;;;;;;23.15;13.57;;;7.10;99.90;;;;;;5052583;28;20091;-78
2022/03/13 02:42:07;;;;;;;25.08;14.60;;;7.10;99.90;;;;;;5068645;28;20488;-78
2022/03/13 02:44:34;;;;;;;21.70;14.02;;;7.10;99.90;;;;;;5060101;28;20088;-78
2022/03/13 02:47:06;;;;;;;22.58;13.55;;;7.10;99.90;;;;;;5044837;28;20041;-78
2022/03/13 02:49:33;;;;;;;22.63;14.07;;;7.10;99.90;;;;;;5059425;28;20094;-79
2022/03/13 02:52:02;;;;;;;21.35;13.55;;;7.10;99.90;;;;;;5059209;28;20087;-78
2022/03/13 02:54:28;;;;;;;21.10;13.48;;;7.10;99.90;;;;;;5055122;28;20044;-79
2022/03/13 02:56:54;;;;;;;21.83;13.82;;;7.10;99.90;;;;;;5056075;28;20059;-78
2022/03/13 02:59:20;;;;;;;21.75;13.40;;;7.10;99.90;;;;;;5065713;28;20579;-78
2022/03/13 03:01:46;;;;;;;23.52;12.73;;;7.00;99.90;;;;;;5055386;28;20044;-78
2022/03/13 03:04:12;;;;;;;24.73;14.23;;;7.00;99.90;;;;;;5056755;28;20461;-78
2022/03/13 03:06:48;;;;;;;23.50;13.68;;;6.90;99.90;;;;;;5069338;28;20049;-78
2022/03/13 03:09:17;;;;;;;23.13;14.70;;;6.90;99.90;;;;;;5055155;28;20484;-78
2022/03/13 03:11:43;;;;;;;22.67;13.88;;;6.20;99.90;;;;;;5054303;28;20045;-79
2022/03/13 03:14:09;;;;;;;21.05;13.18;;;6.80;99.90;;;;;;5048333;28;20072;-78
2022/03/13 03:16:34;;;;;;;21.85;14.00;;;6.80;99.90;;;;;;5069392;28;20469;-79
2022/03/13 03:19:00;;;;;;;23.15;15.30;;;6.80;99.90;;;;;;5059027;28;20512;-78
2022/03/13 03:21:26;;;;;;;23.98;14.45;;;6.70;99.90;;;;;;5056726;28;20044;-79
2022/03/13 03:23:52;;;;;;;22.13;14.82;;;6.70;99.90;;;;;;5037568;28;20056;-78
2022/03/13 03:26:17;;;;;;;23.33;14.13;;;6.70;99.90;;;;;;5036208;28;20041;-79
2022/03/13 03:28:44;;;;;;;22.98;13.50;;;6.60;99.90;;;;;;5056887;28;20400;-78
2022/03/13 03:31:10;;;;;;;21.70;13.75;;;6.60;99.90;;;;;;5042944;28;20052;-78
2022/03/13 03:33:36;;;;;;;24.05;14.68;;;6.60;99.90;;;;;;5068381;28;20048;-78
2022/03/13 03:36:01;;;;;;;21.80;13.73;;;6.60;99.90;;;;;;5055080;28;20573;-79
2022/03/13 03:38:27;;;;;;;28.17;15.45;;;6.50;99.90;;;;;;5069474;28;20032;-78
2022/03/13 03:40:53;;;;;;;21.25;13.90;;;6.50;99.90;;;;;;5060524;28;20125;-78
2022/03/13 03:43:18;;;;;;;23.50;14.25;;;6.50;99.90;;;;;;5068108;28;20036;-78
2022/03/13 03:45:44;;;;;;;23.85;14.48;;;6.40;99.90;;;;;;5050845;28;20048;-78
2022/03/13 03:48:10;;;;;;;24.33;14.70;;;6.40;99.90;;;;;;5067414;28;20121;-78
2022/03/13 03:50:35;;;;;;;21.75;14.00;;;7.10;99.90;;;;;;5064704;28;20036;-78
2022/03/13 03:53:01;;;;;;;24.45;13.48;;;6.40;99.90;;;;;;5059334;28;20422;-78
2022/03/13 03:55:27;;;;;;;20.63;14.23;;;6.40;99.90;;;;;;5069795;28;20485;-78
2022/03/13 03:57:53;;;;;;;23.65;14.82;;;6.40;99.90;;;;;;5059453;28;20511;-78
2022/03/13 04:00:19;;;;;;;23.25;14.30;;;6.40;99.90;;;;;;5060512;28;20477;-78
2022/03/13 04:02:45;;;;;;;21.50;13.90;;;6.30;99.90;;;;;;5053543;28;20045;-78
2022/03/13 04:05:11;;;;;;;25.65;14.38;;;6.30;99.90;;;;;;5047047;28;20592;-78
2022/03/13 04:07:38;;;;;;;22.45;14.75;;;6.30;99.90;;;;;;5057342;28;20049;-78
2022/03/13 04:10:05;;;;;;;23.40;14.15;;;6.10;99.90;;;;;;5038908;28;20029;-78
2022/03/13 04:12:31;;;;;;;21.73;14.57;;;6.10;99.90;;;;;;5067763;28;20083;-78
2022/03/13 04:14:56;;;;;;;22.83;14.23;;;6.00;99.90;;;;;;5061787;28;20068;-78
2022/03/13 04:17:22;;;;;;;22.65;14.30;;;5.90;99.90;;;;;;5055784;28;20047;-78
2022/03/13 04:19:48;;;;;;;22.67;14.40;;;5.80;99.90;;;;;;5056468;28;20041;-78
2022/03/13 04:22:17;;;;;;;23.42;14.63;;;5.80;99.90;;;;;;5040370;28;21929;-78
2022/03/13 04:24:43;;;;;;;21.48;13.48;;;5.70;99.90;;;;;;5058144;28;20056;-78
2022/03/13 04:27:09;;;;;;;24.48;14.80;;;5.70;99.90;;;;;;5053642;28;20052;-78
2022/03/13 04:29:34;;;;;;;24.17;14.82;;;5.60;99.90;;;;;;5052914;28;20127;-78
2022/03/13 04:32:03;;;;;;;20.13;13.25;;;5.80;99.90;;;;;;5054597;28;20041;-78
2022/03/13 04:34:29;;;;;;;24.77;14.07;;;5.50;99.90;;;;;;5043802;28;20047;-78
2022/03/13 04:36:56;;;;;;;23.25;13.90;;;5.40;99.90;;;;;;5067840;28;20407;-78
2022/03/13 04:39:21;;;;;;;22.85;14.93;;;5.40;99.90;;;;;;5058836;28;20119;-78
2022/03/13 04:41:47;;;;;;;24.77;14.10;;;5.40;99.90;;;;;;5056650;28;20032;-78
2022/03/13 04:44:14;;;;;;;23.00;14.10;;;5.40;99.90;;;;;;5059688;28;20048;-78
2022/03/13 04:46:41;;;;;;;23.90;14.85;;;5.40;99.90;;;;;;5058647;28;20048;-78
2022/03/13 04:49:07;;;;;;;24.00;14.32;;;5.40;99.90;;;;;;5041020;28;20057;-78
2022/03/13 04:51:32;;;;;;;22.38;13.70;;;5.40;99.90;;;;;;5054134;28;20053;-78
2022/03/13 04:53:58;;;;;;;21.05;13.20;;;5.40;99.90;;;;;;5058341;28;20043;-78
2022/03/13 04:56:24;;;;;;;21.52;14.55;;;5.50;99.90;;;;;;5034678;28;20041;-78
2022/03/13 04:58:50;;;;;;;24.35;14.23;;;5.50;99.90;;;;;;5065045;28;20068;-78
2022/03/13 05:01:19;;;;;;;22.08;14.52;;;6.00;99.90;;;;;;5063444;28;20041;-78
2022/03/13 05:03:45;;;;;;;22.75;14.55;;;5.40;99.90;;;;;;5041925;28;20052;-78
2022/03/13 05:06:12;;;;;;;22.25;13.75;;;5.40;99.90;;;;;;5051865;28;20053;-78
2022/03/13 05:08:37;;;;;;;23.50;14.88;;;5.50;99.90;;;;;;5054001;28;20041;-78
2022/03/13 05:11:07;;;;;;;22.75;14.60;;;5.40;99.90;;;;;;5066742;28;22382;-78
2022/03/13 05:13:34;;;;;;;21.40;12.77;;;5.30;99.90;;;;;;5046839;28;20068;-78
2022/03/13 05:16:00;;;;;;;21.80;13.43;;;5.50;99.90;;;;;;5064438;28;20412;-78
2022/03/13 05:18:26;;;;;;;22.40;13.73;;;5.20;99.90;;;;;;5059198;28;20112;-78
2022/03/13 05:20:51;;;;;;;26.45;14.02;;;5.20;99.90;;;;;;5057452;28;20155;-78
2022/03/13 05:23:17;;;;;;;21.33;13.75;;;5.20;99.90;;;;;;5047005;28;20036;-78
2022/03/13 05:25:43;;;;;;;21.05;14.13;;;5.10;99.90;;;;;;5053955;28;20438;-78
2022/03/13 05:28:09;;;;;;;20.63;13.13;;;5.10;99.90;;;;;;5036472;28;20092;-78
2022/03/13 05:30:39;;;;;;;21.15;13.25;;;5.10;99.90;;;;;;5051285;28;20044;-78
2022/03/13 05:33:06;;;;;;;23.92;13.43;;;5.10;99.90;;;;;;5057402;28;20083;-78
2022/03/13 05:35:31;;;;;;;20.08;13.27;;;5.10;99.90;;;;;;5055448;28;20056;-77
2022/03/13 05:37:57;;;;;;;21.55;13.25;;;5.00;99.90;;;;;;5060141;28;20435;-78
2022/03/13 05:40:24;;;;;;;21.73;13.27;;;5.00;99.90;;;;;;5038411;28;20076;-78
2022/03/13 05:42:55;;;;;;;21.15;13.63;;;5.00;99.90;;;;;;5065638;28;20133;-78
2022/03/13 05:45:22;;;;;;;24.48;14.52;;;5.00;99.90;;;;;;5067035;28;20068;-78
2022/03/13 05:47:55;;;;;;;22.42;12.75;;;5.00;99.90;;;;;;5067137;28;20384;-78
2022/03/13 05:50:23;;;;;;;21.30;13.23;;;5.00;99.90;;;;;;5057405;28;20210;-78
2022/03/13 05:52:49;;;;;;;24.40;13.50;;;5.00;99.90;;;;;;5051327;28;20060;-78
2022/03/13 05:55:16;;;;;;;22.48;13.40;;;5.00;99.90;;;;;;5063149;28;20064;-78
2022/03/13 05:57:42;;;;;;;20.38;13.07;;;5.00;99.90;;;;;;5045296;28;20544;-78
2022/03/13 06:00:11;;;;;;;25.00;14.00;;;5.00;99.90;;;;;;5064191;28;20124;-78
2022/03/13 06:02:39;;;;;;;20.67;13.25;;;5.00;99.90;;;;;;5043441;28;20056;-78
2022/03/13 06:05:06;;;;;;;22.50;13.63;;;5.00;99.90;;;;;;5064768;28;20063;-78
2022/03/13 06:07:32;;;;;;;26.60;12.88;;;5.10;99.90;;;;;;5053716;28;20041;-77
2022/03/13 06:09:57;;;;;;;20.13;12.30;;;5.10;99.90;;;;;;5047234;28;20078;-78
2022/03/13 06:12:23;;;;;;;22.63;12.63;;;5.20;99.90;;;;;;5044372;28;20381;-78
2022/03/13 06:14:48;;;;;;;21.98;12.80;;;5.20;99.90;;;;;;5057199;28;20040;-78
2022/03/13 06:17:14;;;;;;;24.85;12.82;;;5.20;99.90;;;;;;5064367;28;20132;-78
2022/03/13 06:19:42;;;;;;;22.55;12.63;;;5.30;99.90;;;;;;5060358;28;20400;-78
2022/03/13 06:22:09;;;;;;;20.63;12.45;;;5.30;99.90;;;;;;5044503;28;20098;-78
2022/03/13 06:24:35;;;;;;;22.65;12.65;;;5.30;99.90;;;;;;5052365;28;21274;-78
2022/03/13 06:27:01;;;;;;;21.23;12.50;;;5.40;99.90;;;;;;5065315;28;20041;-77
2022/03/13 06:29:26;;;;;;;23.05;12.00;;;5.40;99.90;;;;;;5064756;28;20041;-77
2022/03/13 06:31:52;;;;;;;19.60;11.35;;;5.40;99.90;;;;;;5072139;28;20044;-77
2022/03/13 06:34:18;;;;;;;20.50;12.30;;;5.40;99.90;;;;;;5065805;28;20040;-76
2022/03/13 06:36:45;;;;;;;17.77;11.68;;;5.50;99.90;;;;;;5063381;28;20114;-76
2022/03/13 06:39:10;;;;;;;19.65;12.38;;;5.50;99.90;;;;;;5049422;28;20049;-77
2022/03/13 06:41:36;;;;;;;20.48;11.85;;;5.50;99.90;;;;;;5050363;28;20094;-77
2022/03/13 06:44:02;;;;;;;22.45;12.65;;;5.90;99.90;;;;;;5069748;28;20081;-77
2022/03/13 06:46:28;;;;;;;19.83;11.13;;;5.50;99.90;;;;;;5045938;28;20033;-77
2022/03/13 06:48:53;;;;;;;20.48;11.80;;;5.60;99.90;;;;;;5066651;28;20075;-77
2022/03/13 06:51:20;;;;;;;21.15;11.80;;;5.60;99.90;;;;;;5044656;28;20602;-76
2022/03/13 06:53:45;;;;;;;19.38;12.32;;;5.60;99.90;;;;;;5050893;28;20093;-77
2022/03/13 06:56:11;;;;;;;19.20;11.73;;;5.60;99.90;;;;;;5065098;28;20048;-78
2022/03/13 06:58:37;;;;;;;19.77;12.55;;;5.60;99.90;;;;;;5048089;28;20041;-81
2022/03/13 07:01:03;;;;;;;17.75;10.35;;;5.60;99.90;;;;;;5046026;28;20081;-77
2022/03/13 07:03:29;;;;;;;20.55;12.40;;;5.60;99.90;;;;;;5045625;28;20041;-77
2022/03/13 07:05:54;;;;;;;20.50;12.07;;;5.60;99.90;;;;;;5062106;28;20044;-77
2022/03/13 07:08:20;;;;;;;20.45;11.63;;;5.60;99.90;;;;;;5072949;28;20033;-77
2022/03/13 07:10:46;;;;;;;19.77;12.15;;;5.60;99.90;;;;;;5050694;28;20040;-77
2022/03/13 07:13:16;;;;;;;19.52;12.05;;;5.60;99.90;;;;;;5066722;28;20474;-77
2022/03/13 07:15:42;;;;;;;22.75;12.32;;;5.60;99.90;;;;;;5045577;28;20052;-77
2022/03/13 07:18:08;;;;;;;18.08;11.68;;;5.60;99.90;;;;;;5051710;28;20044;-77
2022/03/13 07:20:33;;;;;;;20.15;12.10;;;5.60;99.90;;;;;;5047759;28;20483;-77
2022/03/13 07:22:59;;;;;;;17.52;11.15;;;5.60;99.90;;;;;;5072168;28;20120;-77
2022/03/13 07:25:24;;;;;;;19.05;12.23;;;5.60;99.90;;;;;;5065867;28;20041;-76
2022/03/13 07:27:50;;;;;;;18.83;12.48;;;5.60;99.90;;;;;;5064581;28;20047;-77
2022/03/13 07:30:16;;;;;;;19.50;12.05;;;5.70;99.90;;;;;;5060769;28;20057;-77
2022/03/13 07:32:42;;;;;;;18.10;11.52;;;5.70;99.90;;;;;;5064590;28;20576;-78
2022/03/13 07:35:08;;;;;;;20.35;11.93;;;5.80;99.90;;;;;;5067082;28;20075;-78
2022/03/13 07:37:34;;;;;;;18.45;12.13;;;5.80;99.90;;;;;;5049927;28;20571;-78
2022/03/13 07:40:00;;;;;;;18.30;12.02;;;5.90;99.90;;;;;;5064444;28;20071;-81
2022/03/13 07:42:26;;;;;;;18.33;11.27;;;6.00;99.90;;;;;;5082159;28;20513;-82
2022/03/13 07:44:52;;;;;;;20.92;11.73;;;6.00;99.90;;;;;;5055689;28;20047;-71
2022/03/13 07:47:18;;;;;;;19.40;11.82;;;6.10;99.90;;;;;;5071971;28;20094;-71
2022/03/13 07:49:43;;;;;;;21.20;11.80;;;6.20;99.90;;;;;;5066219;28;20048;-71
2022/03/13 07:52:09;;;;;;;18.85;11.40;;;6.30;99.90;;;;;;5066440;28;20084;-71
2022/03/13 07:54:35;;;;;;;22.10;12.15;;;6.40;99.90;;;;;;5066201;28;20101;-70
2022/03/13 07:57:00;;;;;;;17.50;11.50;;;6.50;99.90;;;;;;5066975;28;20048;-71
2022/03/13 07:59:26;;;;;;;18.42;11.15;;;6.60;99.90;;;;;;5053964;28;20395;-71
2022/03/13 08:01:52;;;;;;;19.38;10.73;;;6.80;99.90;;;;;;5053022;28;20048;-70
2022/03/13 08:04:17;;;;;;;20.73;11.50;;;7.00;99.90;;;;;;5071574;28;20516;-71
2022/03/13 08:06:43;;;;;;;23.15;12.07;;;7.10;99.90;;;;;;5069186;28;20337;-70
2022/03/13 08:09:10;;;;;;;20.48;12.73;;;7.30;99.90;;;;;;5053269;28;20504;-71
2022/03/13 08:11:36;;;;;;;20.17;10.82;;;7.40;99.90;;;;;;5065975;28;20048;-71
2022/03/13 08:14:02;;;;;;;17.85;10.77;;;7.50;99.90;;;;;;5041540;28;20055;-70
2022/03/13 08:16:28;;;;;;;18.70;10.65;;;7.50;99.90;;;;;;5061762;28;20119;-70
2022/03/13 08:18:54;;;;;;;18.70;10.85;;;7.60;99.40;;;;;;5072132;28;20099;-70
2022/03/13 08:21:20;;;;;;;19.05;11.32;;;7.60;98.80;;;;;;5059726;28;20072;-71
2022/03/13 08:23:45;;;;;;;20.25;11.38;;;7.60;98.20;;;;;;5071214;28;20067;-74
2022/03/13 08:26:11;;;;;;;16.52;11.13;;;7.60;98.60;;;;;;5069828;28;20101;-74
2022/03/13 08:28:38;;;;;;;20.42;11.70;;;7.70;98.00;;;;;;5068679;28;20041;-75
2022/03/13 08:31:03;;;;;;;15.90;10.43;;;7.70;97.40;;;;;;5053712;28;20044;-74
2022/03/13 08:33:29;;;;;;;16.60;10.32;;;7.70;97.60;;;;;;5064456;28;20158;-74
2022/03/13 08:35:55;;;;;;;18.20;11.32;;;7.70;98.00;;;;;;5070842;28;20394;-74
2022/03/13 08:38:20;;;;;;;18.77;11.68;;;7.80;97.90;;;;;;5066122;28;20502;-74
2022/03/13 08:40:46;;;;;;;16.92;10.35;;;7.80;97.50;;;;;;5068767;28;20129;-74
2022/03/13 08:43:12;;;;;;;16.55;10.10;;;7.90;97.10;;;;;;5067689;28;20491;-75
2022/03/13 08:45:38;;;;;;;18.40;11.05;;;7.90;96.40;;;;;;5068285;28;20048;-73
2022/03/13 08:48:04;;;;;;;16.40;9.82;;;8.00;96.60;;;;;;5064706;28;20060;-74
2022/03/13 08:50:30;;;;;;;17.60;10.32;;;8.10;96.40;;;;;;5064778;28;20040;-74
2022/03/13 08:52:56;;;;;;;18.77;11.07;;;8.10;96.10;;;;;;5067599;28;20061;-74
2022/03/13 08:55:22;;;;;;;17.88;10.73;;;8.20;96.30;;;;;;5067080;28;20490;-73
2022/03/13 08:57:48;;;;;;;20.63;10.98;;;8.20;96.40;;;;;;5066509;28;20044;-74
2022/03/13 09:00:18;;;;;;;17.73;10.95;;;8.30;96.30;;;;;;5064788;28;20041;-72
2022/03/13 09:02:45;;;;;;;17.23;10.57;;;8.30;95.20;;;;;;5066733;28;20041;-72
2022/03/13 09:05:10;;;;;;;14.75;9.70;;;8.40;95.20;;;;;;5066002;28;20033;-72
2022/03/13 09:07:36;;;;;;;15.00;10.20;;;8.40;95.00;;;;;;5044268;28;20432;-73
2022/03/13 09:10:05;;;;;;;16.35;10.13;;;8.40;95.60;;;;;;5066849;28;20094;-72
2022/03/13 09:12:31;;;;;;;17.90;10.60;;;8.40;95.40;;;;;;5068377;28;20062;-72
2022/03/13 09:14:57;;;;;;;17.92;10.02;;;8.40;94.40;;;;;;5069020;28;20228;-72
2022/03/13 09:17:23;;;;;;;17.55;10.55;;;8.50;95.10;;;;;;5068462;28;20040;-72
2022/03/13 09:19:48;;;;;;;15.43;10.50;;;8.60;95.00;;;;;;5047312;28;20041;-72
2022/03/13 09:22:14;;;;;;;16.10;11.13;;;8.70;94.80;;;;;;5059475;28;20136;-72
2022/03/13 09:24:41;;;;;;;21.35;11.10;;;8.80;94.30;;;;;;5066927;28;20044;-73
2022/03/13 09:27:07;;;;;;;18.58;11.48;;;8.90;94.20;;;;;;5067126;28;20036;-72
2022/03/13 09:29:32;;;;;;;18.48;10.90;;;9.00;94.10;;;;;;5047938;28;20392;-73
2022/03/13 09:31:58;;;;;;;17.75;10.68;;;9.10;94.00;;;;;;5048271;28;20101;-73
2022/03/13 09:34:24;;;;;;;16.52;10.88;;;9.30;93.90;;;;;;5065790;28;20042;-72
2022/03/13 09:36:50;;;;;;;16.23;10.85;;;9.40;93.30;;;;;;5061733;28;20075;-73
2022/03/13 09:39:15;;;;;;;16.92;10.57;;;9.60;93.00;;;;;;5065817;28;20464;-72
2022/03/13 09:41:42;;;;;;;18.42;10.57;;;9.70;93.40;;;;;;5066953;28;20040;-73
2022/03/13 09:44:08;;;;;;;15.35;10.55;;;9.80;92.60;;;;;;5064807;28;20037;-72
2022/03/13 09:46:38;;;;;;;16.33;10.10;;;10.00;91.70;;;;;;5075235;28;20036;-72
2022/03/13 09:49:04;;;;;;;17.88;11.10;;;10.20;91.90;;;;;;5064798;28;20065;-73
2022/03/13 09:51:30;;;;;;;18.42;10.57;;;10.30;91.60;;;;;;5058865;28;20468;-73
2022/03/13 09:53:56;;;;;;;16.77;10.40;;;10.40;90.50;;;;;;5060761;28;20075;-74
2022/03/13 09:56:22;;;;;;;17.00;11.20;;;10.60;91.50;;;;;;5061455;28;20076;-74
2022/03/13 09:58:48;;;;;;;18.08;10.75;;;10.70;90.70;;;;;;5067609;28;20064;-73
2022/03/13 10:01:14;;;;;;;16.83;11.27;;;10.90;90.50;;;;;;5067034;28;20480;-74
2022/03/13 10:03:40;;;;;;;16.80;10.60;;;11.00;90.30;;;;;;5070211;28;20045;-73
2022/03/13 10:06:06;;;;;;;18.10;10.82;;;11.20;90.20;;;;;;5053976;28;20036;-74
2022/03/13 10:08:33;;;;;;;17.23;10.57;;;11.30;90.00;;;;;;5049718;28;20064;-74
2022/03/13 10:11:02;;;;;;;18.48;11.35;;;11.50;90.70;;;;;;5050434;28;20824;-74
2022/03/13 10:13:49;;;;;;;15.45;10.23;;;11.70;90.10;;;;;;5044739;28;20045;-73
2022/03/13 10:16:20;;;;;;;18.10;11.45;;;11.80;90.00;;;;;;5063799;28;20044;-73
2022/03/13 10:18:46;;;;;;;16.75;10.55;;;12.00;87.50;;;;;;5065151;28;20044;-72
2022/03/13 10:21:13;;;;;;;16.42;11.23;;;12.10;89.50;;;;;;5047920;28;20056;-72
2022/03/13 10:23:40;;;;;;;18.20;11.18;;;12.20;87.00;;;;;;5068745;28;20052;-72
2022/03/13 10:26:07;;;;;;;19.17;11.75;;;12.30;86.70;;;;;;5061529;28;20036;-72
2022/03/13 10:28:36;;;;;;;18.20;11.40;;;12.40;87.70;;;;;;5056922;28;20056;-71
2022/03/13 10:31:02;;;;;;;17.95;11.68;;;12.50;87.30;;;;;;5066306;28;20044;-72
2022/03/13 10:33:48;;;;;;;17.60;10.98;;;12.60;85.90;;;;;;5048190;28;20045;-72
2022/03/13 10:36:16;;;;;;;17.92;11.65;;;12.80;85.10;;;;;;5044102;28;20052;-72
2022/03/13 10:38:43;;;;;;;17.23;10.73;;;12.90;87.00;;;;;;5069320;28;20041;-72
2022/03/13 10:41:10;;;;;;;18.17;10.73;;;13.00;86.30;;;;;;5067936;28;20040;-72
2022/03/13 10:43:40;;;;;;;20.10;11.95;;;13.10;85.80;;;;;;5070396;28;20512;-72
2022/03/13 10:46:06;;;;;;;16.83;10.90;;;13.20;84.90;;;;;;5051606;28;20052;-72
2022/03/13 10:48:33;;;;;;;16.77;11.25;;;13.30;84.80;;;;;;5050027;28;20080;-72
2022/03/13 10:51:04;;;;;;;17.20;10.57;;;13.40;83.90;;;;;;5056545;28;20045;-76
2022/03/13 10:53:31;;;;;;;16.77;11.32;;;13.50;84.70;;;;;;5067871;28;20081;-74
2022/03/13 10:56:02;;;;;;;17.00;11.65;;;13.60;86.00;;;;;;5067283;28;20041;-71
2022/03/13 10:58:31;;;;;;;16.85;12.18;;;13.60;84.90;;;;;;5061974;28;20033;-73
2022/03/13 11:01:11;;;;;;;16.35;10.82;;;13.50;83.60;;;;;;5071438;28;20040;-72
2022/03/13 11:03:51;;;;;;;16.05;11.25;;;13.50;83.90;;;;;;5061478;28;20051;-73
2022/03/13 11:06:17;;;;;;;19.23;11.48;;;13.40;84.30;;;;;;5062191;28;20436;-72
2022/03/13 11:08:43;;;;;;;16.30;11.60;;;13.50;84.40;;;;;;5068483;28;20052;-73
2022/03/13 11:11:09;;;;;;;18.77;10.85;;;13.60;84.30;;;;;;5045785;28;20045;-73
2022/03/13 11:13:37;;;;;;;18.10;11.98;;;13.70;84.50;;;;;;5071772;28;20548;-72
2022/03/13 11:16:09;;;;;;;17.60;11.60;;;14.00;84.30;;;;;;5050966;28;20051;-72
2022/03/13 11:18:37;;;;;;;15.70;10.98;;;14.20;83.40;;;;;;5050844;28;20503;-72
2022/03/13 11:21:06;;;;;;;18.42;12.27;;;14.40;84.10;;;;;;5065185;28;20048;-73
2022/03/13 11:23:36;;;;;;;16.88;11.02;;;14.70;83.80;;;;;;5062139;28;20048;-73
2022/03/13 11:26:03;;;;;;;18.17;11.85;;;14.90;82.90;;;;;;5045552;28;20048;-73
2022/03/13 11:28:30;;;;;;;16.50;11.10;;;15.10;82.60;;;;;;5054455;28;20377;-73
2022/03/13 11:30:57;;;;;;;16.95;11.43;;;15.30;82.20;;;;;;5064070;28;20041;-73
2022/03/13 11:33:45;;;;;;;17.60;11.45;;;15.40;81.50;;;;;;5046752;28;20060;-73
2022/03/13 11:36:32;;;;;;;20.45;12.43;;;15.60;79.30;;;;;;5052636;28;20041;-72
2022/03/13 11:39:06;;;;;;;17.77;11.57;;;15.70;79.70;;;;;;5065798;28;20436;-71
2022/03/13 11:41:39;;;;;;;17.13;11.32;;;15.80;78.10;;;;;;5063871;28;20048;-72
2022/03/13 11:44:20;;;;;;;20.52;12.50;;;15.90;78.60;;;;;;5065881;28;20408;-74
2022/03/13 11:46:48;;;;;;;16.67;11.25;;;15.90;77.00;;;;;;5046346;28;20213;-74
2022/03/13 11:49:16;;;;;;;18.33;11.88;;;15.90;78.40;;;;;;5048052;28;20468;-74
2022/03/13 11:51:43;;;;;;;16.70;10.93;;;16.00;78.30;;;;;;5056295;28;20068;-74
2022/03/13 11:54:13;;;;;;;18.17;11.85;;;16.10;77.10;;;;;;5069923;28;20488;-74
2022/03/13 11:56:46;;;;;;;18.02;11.70;;;16.10;77.30;;;;;;5063284;28;20044;-74
2022/03/13 11:59:19;;;;;;;19.40;11.17;;;16.20;75.60;;;;;;5061399;28;20045;-74
2022/03/13 12:01:46;;;;;;;28.30;12.50;;;16.60;75.30;;;;;;5037918;28;20124;-74
2022/03/13 12:04:13;;;;;;;22.20;11.07;;;16.30;76.60;;;;;;5040529;28;20076;-74
2022/03/13 12:06:43;;;;;;;21.83;12.27;;;16.30;75.70;;;;;;5050905;28;20099;-74
2022/03/13 12:09:13;;;;;;;30.98;11.98;;;16.40;75.20;;;;;;5044309;28;20496;-74
2022/03/13 12:11:55;;;;;;;17.20;11.82;;;16.50;75.90;;;;;;5071542;28;20147;-75
2022/03/13 12:14:42;;;;;;;16.10;11.00;;;16.60;75.20;;;;;;5069049;28;20523;-77
2022/03/13 12:17:08;;;;;;;18.27;11.27;;;16.70;75.80;;;;;;5075732;28;20508;-77
2022/03/13 12:19:39;;;;;;;18.20;11.35;;;16.80;74.70;;;;;;5045236;28;20083;-76
2022/03/13 12:22:05;;;;;;;19.10;11.73;;;16.80;73.20;;;;;;5049753;28;20059;-76
2022/03/13 12:24:32;;;;;;;17.55;10.93;;;16.80;73.20;;;;;;5047518;28;20044;-76
2022/03/13 12:27:01;;;;;;;16.67;11.63;;;16.80;73.00;;;;;;5070443;28;20091;-77
2022/03/13 12:29:28;;;;;;;18.02;11.88;;;16.90;72.80;;;;;;5068819;28;20049;-77
2022/03/13 12:31:54;;;;;;;19.52;11.45;;;17.00;72.70;;;;;;5050665;28;20045;-77
2022/03/13 12:34:41;;;;;;;20.40;12.25;;;16.90;72.90;;;;;;5058378;28;20044;-77
2022/03/13 12:37:08;;;;;;;17.27;10.75;;;16.90;70.90;;;;;;5044109;28;20036;-75